sensor_id;sensor_type;location;lat;lon;timestamp;temperature;humidity
21193;DHT22;10754;51.106;7.164;2022-12-10T00:06:08;4.90;1.00
21193;DHT22;10754;51.106;7.164;2022-12-10T00:11:51;4.80;1.00
21193;DHT22;10754;51.106;7.164;2022-12-10T00:14:48;4.80;1.00
21193;DHT22;10754;51.106;7.164;2022-12-10T00:20:45;4.80;1.00
21193;DHT22;10754;51.106;7.164;2022-12-10T00:30:34;4.70;1.00
21193;DHT22;10754;51.106;7.164;2022-12-10T00:33:38;4.60;1.00
21193;DHT22;10754;51.106;7.164;2022-12-10T00:39:54;4.70;1.00
21193;DHT22;10754;51.106;7.164;2022-12-10T00:43:11;4.70;1.00
21193;DHT22;10754;51.106;7.164;2022-12-10T00:46:00;4.60;1.00
21193;DHT22;10754;51.106;7.164;2022-12-10T00:48:40;4.60;1.00
21193;DHT22;10754;51.106;7.164;2022-12-10T00:52:31;4.50;1.00
21193;DHT22;10754;51.106;7.164;2022-12-10T00:55:21;4.50;1.00
21193;DHT22;10754;51.106;7.164;2022-12-10T00:58:02;4.50;1.00
21193;DHT22;10754;51.106;7.164;2022-12-10T01:00:51;4.40;1.00
21193;DHT22;10754;51.106;7.164;2022-12-10T01:07:34;4.50;1.00
21193;DHT22;10754;51.106;7.164;2022-12-10T01:16:45;4.40;1.00
21193;DHT22;10754;51.106;7.164;2022-12-10T01:23:09;4.30;1.00
21193;DHT22;10754;51.106;7.164;2022-12-10T01:39:20;4.20;1.00
21193;DHT22;10754;51.106;7.164;2022-12-10T01:42:30;4.20;1.00
21193;DHT22;10754;51.106;7.164;2022-12-10T01:48:52;4.20;1.00
21193;DHT22;10754;51.106;7.164;2022-12-10T01:54:46;4.10;1.00
21193;DHT22;10754;51.106;7.164;2022-12-10T02:01:08;4.10;1.00
21193;DHT22;10754;51.106;7.164;2022-12-10T02:16:41;4.00;1.00
21193;DHT22;10754;51.106;7.164;2022-12-10T02:38:33;4.00;1.00
21193;DHT22;10754;51.106;7.164;2022-12-10T02:45:06;4.00;1.00
21193;DHT22;10754;51.106;7.164;2022-12-10T02:48:12;4.00;1.00
21193;DHT22;10754;51.106;7.164;2022-12-10T02:51:21;3.90;1.00
21193;DHT22;10754;51.106;7.164;2022-12-10T03:24:51;3.80;1.00
21193;DHT22;10754;51.106;7.164;2022-12-10T03:28:11;3.70;1.00
21193;DHT22;10754;51.106;7.164;2022-12-10T03:41:53;3.70;1.00
21193;DHT22;10754;51.106;7.164;2022-12-10T03:45:06;3.70;1.00
21193;DHT22;10754;51.106;7.164;2022-12-10T03:48:00;3.70;1.00
21193;DHT22;10754;51.106;7.164;2022-12-10T03:51:10;3.70;1.00
21193;DHT22;10754;51.106;7.164;2022-12-10T04:07:29;3.90;1.00
21193;DHT22;10754;51.106;7.164;2022-12-10T04:10:52;3.90;1.00
21193;DHT22;10754;51.106;7.164;2022-12-10T04:17:46;3.90;1.00
21193;DHT22;10754;51.106;7.164;2022-12-10T04:31:17;3.90;1.00
21193;DHT22;10754;51.106;7.164;2022-12-10T04:47:44;4.00;1.00
21193;DHT22;10754;51.106;7.164;2022-12-10T05:01:01;4.10;1.00
21193;DHT22;10754;51.106;7.164;2022-12-10T05:04:13;4.00;1.00
21193;DHT22;10754;51.106;7.164;2022-12-10T05:07:06;4.10;1.00
21193;DHT22;10754;51.106;7.164;2022-12-10T05:09:50;4.10;1.00
21193;DHT22;10754;51.106;7.164;2022-12-10T05:13:04;4.20;1.00
21193;DHT22;10754;51.106;7.164;2022-12-10T05:19:26;4.20;1.00
21193;DHT22;10754;51.106;7.164;2022-12-10T05:22:23;4.20;1.00
21193;DHT22;10754;51.106;7.164;2022-12-10T05:25:38;4.20;1.00
21193;DHT22;10754;51.106;7.164;2022-12-10T05:28:33;4.20;1.00
21193;DHT22;10754;51.106;7.164;2022-12-10T05:38:57;4.20;1.00
21193;DHT22;10754;51.106;7.164;2022-12-10T05:41:25;4.20;1.00
21193;DHT22;10754;51.106;7.164;2022-12-10T05:43:58;4.20;1.00
21193;DHT22;10754;51.106;7.164;2022-12-10T05:46:29;4.20;1.00
21193;DHT22;10754;51.106;7.164;2022-12-10T05:48:55;4.30;1.00
21193;DHT22;10754;51.106;7.164;2022-12-10T05:51:29;4.30;1.00
21193;DHT22;10754;51.106;7.164;2022-12-10T05:53:56;4.30;1.00
21193;DHT22;10754;51.106;7.164;2022-12-10T05:59:48;4.30;1.00
21193;DHT22;10754;51.106;7.164;2022-12-10T06:02:14;4.20;1.00
21193;DHT22;10754;51.106;7.164;2022-12-10T06:04:39;4.20;1.00
21193;DHT22;10754;51.106;7.164;2022-12-10T06:10:38;4.30;1.00
21193;DHT22;10754;51.106;7.164;2022-12-10T06:31:17;4.30;1.00
21193;DHT22;10754;51.106;7.164;2022-12-10T06:34:13;4.20;1.00
21193;DHT22;10754;51.106;7.164;2022-12-10T06:54:48;4.30;1.00
21193;DHT22;10754;51.106;7.164;2022-12-10T07:04:04;4.40;1.00
21193;DHT22;10754;51.106;7.164;2022-12-10T07:27:36;4.30;1.00
21193;DHT22;10754;51.106;7.164;2022-12-10T07:47:35;4.40;1.00
21193;DHT22;10754;51.106;7.164;2022-12-10T07:57:04;4.40;1.00
21193;DHT22;10754;51.106;7.164;2022-12-10T08:07:32;4.40;1.00
21193;DHT22;10754;51.106;7.164;2022-12-10T08:13:51;4.40;1.00
21193;DHT22;10754;51.106;7.164;2022-12-10T08:17:06;4.40;1.00
21193;DHT22;10754;51.106;7.164;2022-12-10T08:20:03;4.50;1.00
21193;DHT22;10754;51.106;7.164;2022-12-10T08:26:22;4.50;1.00
21193;DHT22;10754;51.106;7.164;2022-12-10T08:32:47;4.60;1.00
21193;DHT22;10754;51.106;7.164;2022-12-10T08:35:30;4.60;1.00
21193;DHT22;10754;51.106;7.164;2022-12-10T08:37:58;4.70;1.00
21193;DHT22;10754;51.106;7.164;2022-12-10T08:41:12;4.70;1.00
21193;DHT22;10754;51.106;7.164;2022-12-10T08:47:05;4.70;1.00
21193;DHT22;10754;51.106;7.164;2022-12-10T08:50:02;4.70;1.00
21193;DHT22;10754;51.106;7.164;2022-12-10T08:52:33;4.70;1.00
21193;DHT22;10754;51.106;7.164;2022-12-10T08:58:20;4.70;1.00
21193;DHT22;10754;51.106;7.164;2022-12-10T09:01:17;4.80;1.00
21193;DHT22;10754;51.106;7.164;2022-12-10T09:04:38;4.80;1.00
21193;DHT22;10754;51.106;7.164;2022-12-10T09:07:35;4.90;1.00
21193;DHT22;10754;51.106;7.164;2022-12-10T09:10:34;4.90;1.00
21193;DHT22;10754;51.106;7.164;2022-12-10T09:16:41;4.90;1.00
21193;DHT22;10754;51.106;7.164;2022-12-10T09:19:45;4.80;1.00
21193;DHT22;10754;51.106;7.164;2022-12-10T09:32:45;5.00;1.00
21193;DHT22;10754;51.106;7.164;2022-12-10T09:45:00;5.10;1.00
21193;DHT22;10754;51.106;7.164;2022-12-10T09:50:40;5.20;1.00
21193;DHT22;10754;51.106;7.164;2022-12-10T10:01:00;5.20;1.00
21193;DHT22;10754;51.106;7.164;2022-12-10T10:03:50;5.30;1.00
21193;DHT22;10754;51.106;7.164;2022-12-10T10:09:41;5.30;1.00
21193;DHT22;10754;51.106;7.164;2022-12-10T10:23:08;5.40;1.00
21193;DHT22;10754;51.106;7.164;2022-12-10T10:26:31;5.30;1.00
21193;DHT22;10754;51.106;7.164;2022-12-10T10:29:34;5.40;1.00
21193;DHT22;10754;51.106;7.164;2022-12-10T10:50:00;5.40;1.00
21193;DHT22;10754;51.106;7.164;2022-12-10T10:52:41;5.40;1.00
21193;DHT22;10754;51.106;7.164;2022-12-10T11:09:47;6.50;1.00
21193;DHT22;10754;51.106;7.164;2022-12-10T11:19:59;6.20;1.00
21193;DHT22;10754;51.106;7.164;2022-12-10T11:23:07;6.20;1.00
21193;DHT22;10754;51.106;7.164;2022-12-10T11:30:08;6.10;1.00
21193;DHT22;10754;51.106;7.164;2022-12-10T12:01:05;6.10;1.00
21193;DHT22;10754;51.106;7.164;2022-12-10T12:04:21;6.10;1.00
21193;DHT22;10754;51.106;7.164;2022-12-10T12:27:05;5.70;1.00
21193;DHT22;10754;51.106;7.164;2022-12-10T12:30:23;5.70;1.00
21193;DHT22;10754;51.106;7.164;2022-12-10T12:33:32;5.80;1.00
21193;DHT22;10754;51.106;7.164;2022-12-10T12:36:58;5.80;1.00
21193;DHT22;10754;51.106;7.164;2022-12-10T13:07:47;5.70;1.00
21193;DHT22;10754;51.106;7.164;2022-12-10T13:24:12;5.60;1.00
21193;DHT22;10754;51.106;7.164;2022-12-10T13:48:32;5.50;1.00
21193;DHT22;10754;51.106;7.164;2022-12-10T14:25:41;5.50;1.00
21193;DHT22;10754;51.106;7.164;2022-12-10T14:42:32;5.40;1.00
21193;DHT22;10754;51.106;7.164;2022-12-10T15:13:52;5.20;1.00
21193;DHT22;10754;51.106;7.164;2022-12-10T15:27:51;5.20;1.00
21193;DHT22;10754;51.106;7.164;2022-12-10T15:51:43;5.00;1.00
21193;DHT22;10754;51.106;7.164;2022-12-10T16:04:29;5.00;1.00
21193;DHT22;10754;51.106;7.164;2022-12-10T16:07:09;5.00;1.00
21193;DHT22;10754;51.106;7.164;2022-12-10T16:18:13;5.10;1.00
21193;DHT22;10754;51.106;7.164;2022-12-10T16:28:02;5.10;1.00
21193;DHT22;10754;51.106;7.164;2022-12-10T16:34:54;5.10;1.00
21193;DHT22;10754;51.106;7.164;2022-12-10T16:44:25;5.20;1.00
21193;DHT22;10754;51.106;7.164;2022-12-10T16:46:54;5.10;1.00
21193;DHT22;10754;51.106;7.164;2022-12-10T16:49:25;5.20;1.00
21193;DHT22;10754;51.106;7.164;2022-12-10T16:51:57;5.20;1.00
21193;DHT22;10754;51.106;7.164;2022-12-10T16:54:25;5.30;1.00
21193;DHT22;10754;51.106;7.164;2022-12-10T16:56:51;5.30;1.00
21193;DHT22;10754;51.106;7.164;2022-12-10T16:59:17;5.40;1.00
21193;DHT22;10754;51.106;7.164;2022-12-10T17:01:42;5.40;1.00
21193;DHT22;10754;51.106;7.164;2022-12-10T17:04:14;5.40;1.00
21193;DHT22;10754;51.106;7.164;2022-12-10T17:06:50;5.40;1.00
21193;DHT22;10754;51.106;7.164;2022-12-10T17:09:21;5.30;1.00
21193;DHT22;10754;51.106;7.164;2022-12-10T17:11:47;5.30;1.00
21193;DHT22;10754;51.106;7.164;2022-12-10T17:14:20;5.30;1.00
21193;DHT22;10754;51.106;7.164;2022-12-10T17:16:46;5.20;1.00
21193;DHT22;10754;51.106;7.164;2022-12-10T17:19:13;5.20;1.00
21193;DHT22;10754;51.106;7.164;2022-12-10T17:21:38;5.20;1.00
21193;DHT22;10754;51.106;7.164;2022-12-10T17:24:07;5.20;1.00
21193;DHT22;10754;51.106;7.164;2022-12-10T17:26:36;5.40;1.00
21193;DHT22;10754;51.106;7.164;2022-12-10T17:29:28;5.40;1.00
21193;DHT22;10754;51.106;7.164;2022-12-10T17:31:54;5.50;1.00
21193;DHT22;10754;51.106;7.164;2022-12-10T17:34:27;5.40;1.00
21193;DHT22;10754;51.106;7.164;2022-12-10T17:36:53;5.40;1.00
21193;DHT22;10754;51.106;7.164;2022-12-10T17:39:21;5.40;1.00
21193;DHT22;10754;51.106;7.164;2022-12-10T17:41:52;5.40;1.00
21193;DHT22;10754;51.106;7.164;2022-12-10T17:44:18;5.40;1.00
21193;DHT22;10754;51.106;7.164;2022-12-10T17:46:44;5.30;1.00
21193;DHT22;10754;51.106;7.164;2022-12-10T17:49:14;5.30;1.00
21193;DHT22;10754;51.106;7.164;2022-12-10T17:51:43;5.30;1.00
21193;DHT22;10754;51.106;7.164;2022-12-10T17:54:09;5.20;1.00
21193;DHT22;10754;51.106;7.164;2022-12-10T17:56:34;5.20;1.00
21193;DHT22;10754;51.106;7.164;2022-12-10T17:59:00;5.20;1.00
21193;DHT22;10754;51.106;7.164;2022-12-10T18:01:26;5.20;1.00
21193;DHT22;10754;51.106;7.164;2022-12-10T18:03:53;5.20;1.00
21193;DHT22;10754;51.106;7.164;2022-12-10T18:06:24;5.10;1.00
21193;DHT22;10754;51.106;7.164;2022-12-10T18:08:55;5.20;1.00
21193;DHT22;10754;51.106;7.164;2022-12-10T18:11:34;5.20;1.00
21193;DHT22;10754;51.106;7.164;2022-12-10T18:14:00;5.30;1.00
21193;DHT22;10754;51.106;7.164;2022-12-10T18:16:37;5.30;1.00
21193;DHT22;10754;51.106;7.164;2022-12-10T18:19:13;5.20;1.00
21193;DHT22;10754;51.106;7.164;2022-12-10T18:21:42;5.20;1.00
21193;DHT22;10754;51.106;7.164;2022-12-10T18:24:07;5.10;1.00
21193;DHT22;10754;51.106;7.164;2022-12-10T18:26:36;5.20;1.00
21193;DHT22;10754;51.106;7.164;2022-12-10T18:29:05;5.10;1.00
21193;DHT22;10754;51.106;7.164;2022-12-10T18:31:35;5.20;1.00
21193;DHT22;10754;51.106;7.164;2022-12-10T18:34:08;5.20;1.00
21193;DHT22;10754;51.106;7.164;2022-12-10T18:36:42;5.10;1.00
21193;DHT22;10754;51.106;7.164;2022-12-10T18:39:21;5.10;1.00
21193;DHT22;10754;51.106;7.164;2022-12-10T18:41:49;5.20;1.00
21193;DHT22;10754;51.106;7.164;2022-12-10T18:44:40;5.10;1.00
21193;DHT22;10754;51.106;7.164;2022-12-10T18:47:19;5.10;1.00
21193;DHT22;10754;51.106;7.164;2022-12-10T18:50:22;5.10;1.00
21193;DHT22;10754;51.106;7.164;2022-12-10T18:53:05;5.10;1.00
21193;DHT22;10754;51.106;7.164;2022-12-10T18:55:30;5.10;1.00
21193;DHT22;10754;51.106;7.164;2022-12-10T18:57:56;5.00;1.00
21193;DHT22;10754;51.106;7.164;2022-12-10T19:00:27;5.00;1.00
21193;DHT22;10754;51.106;7.164;2022-12-10T19:03:03;5.10;1.00
21193;DHT22;10754;51.106;7.164;2022-12-10T19:05:48;5.10;1.00
21193;DHT22;10754;51.106;7.164;2022-12-10T19:08:25;5.10;1.00
21193;DHT22;10754;51.106;7.164;2022-12-10T19:10:54;5.20;1.00
21193;DHT22;10754;51.106;7.164;2022-12-10T19:13:25;5.10;1.00
21193;DHT22;10754;51.106;7.164;2022-12-10T19:16:01;5.10;1.00
21193;DHT22;10754;51.106;7.164;2022-12-10T19:18:34;5.30;1.00
21193;DHT22;10754;51.106;7.164;2022-12-10T19:21:08;5.30;1.00
21193;DHT22;10754;51.106;7.164;2022-12-10T19:23:41;5.20;1.00
21193;DHT22;10754;51.106;7.164;2022-12-10T19:26:28;5.10;1.00
21193;DHT22;10754;51.106;7.164;2022-12-10T19:29:08;5.10;1.00
21193;DHT22;10754;51.106;7.164;2022-12-10T19:31:39;5.00;1.00
21193;DHT22;10754;51.106;7.164;2022-12-10T19:34:10;5.00;1.00
21193;DHT22;10754;51.106;7.164;2022-12-10T19:36:47;4.90;1.00
21193;DHT22;10754;51.106;7.164;2022-12-10T19:39:29;4.90;1.00
21193;DHT22;10754;51.106;7.164;2022-12-10T19:42:03;5.00;1.00
21193;DHT22;10754;51.106;7.164;2022-12-10T19:44:38;5.00;1.00
21193;DHT22;10754;51.106;7.164;2022-12-10T19:47:23;5.00;1.00
21193;DHT22;10754;51.106;7.164;2022-12-10T19:50:00;5.00;1.00
21193;DHT22;10754;51.106;7.164;2022-12-10T19:52:44;5.00;1.00
21193;DHT22;10754;51.106;7.164;2022-12-10T19:55:23;5.00;1.00
21193;DHT22;10754;51.106;7.164;2022-12-10T19:57:52;5.00;1.00
21193;DHT22;10754;51.106;7.164;2022-12-10T20:00:22;5.00;1.00
21193;DHT22;10754;51.106;7.164;2022-12-10T20:02:53;5.00;1.00
21193;DHT22;10754;51.106;7.164;2022-12-10T20:05:20;5.00;1.00
21193;DHT22;10754;51.106;7.164;2022-12-10T20:07:54;5.00;1.00
21193;DHT22;10754;51.106;7.164;2022-12-10T20:10:31;5.10;1.00
21193;DHT22;10754;51.106;7.164;2022-12-10T20:13:22;5.10;1.00
21193;DHT22;10754;51.106;7.164;2022-12-10T20:15:59;5.10;1.00
21193;DHT22;10754;51.106;7.164;2022-12-10T20:18:30;5.20;1.00
21193;DHT22;10754;51.106;7.164;2022-12-10T20:20:59;5.20;1.00
21193;DHT22;10754;51.106;7.164;2022-12-10T20:23:25;5.30;1.00
21193;DHT22;10754;51.106;7.164;2022-12-10T20:25:59;5.30;1.00
21193;DHT22;10754;51.106;7.164;2022-12-10T20:28:26;5.20;1.00
21193;DHT22;10754;51.106;7.164;2022-12-10T20:30:52;5.30;1.00
21193;DHT22;10754;51.106;7.164;2022-12-10T20:33:28;5.20;1.00
21193;DHT22;10754;51.106;7.164;2022-12-10T20:35:57;5.20;1.00
21193;DHT22;10754;51.106;7.164;2022-12-10T20:38:25;5.20;1.00
21193;DHT22;10754;51.106;7.164;2022-12-10T20:40:57;5.20;1.00
21193;DHT22;10754;51.106;7.164;2022-12-10T20:43:23;5.20;1.00
21193;DHT22;10754;51.106;7.164;2022-12-10T20:46:07;5.20;1.00
21193;DHT22;10754;51.106;7.164;2022-12-10T20:48:35;5.20;1.00
21193;DHT22;10754;51.106;7.164;2022-12-10T20:51:07;5.10;1.00
21193;DHT22;10754;51.106;7.164;2022-12-10T20:53:46;5.20;1.00
21193;DHT22;10754;51.106;7.164;2022-12-10T20:56:23;5.10;1.00
21193;DHT22;10754;51.106;7.164;2022-12-10T20:59:17;5.10;1.00
21193;DHT22;10754;51.106;7.164;2022-12-10T21:01:45;5.20;1.00
21193;DHT22;10754;51.106;7.164;2022-12-10T21:04:25;5.40;1.00
21193;DHT22;10754;51.106;7.164;2022-12-10T21:07:12;5.30;1.00
21193;DHT22;10754;51.106;7.164;2022-12-10T21:09:54;5.30;1.00
21193;DHT22;10754;51.106;7.164;2022-12-10T21:12:41;5.30;1.00
21193;DHT22;10754;51.106;7.164;2022-12-10T21:15:37;5.10;1.00
21193;DHT22;10754;51.106;7.164;2022-12-10T21:18:10;5.10;1.00
21193;DHT22;10754;51.106;7.164;2022-12-10T21:20:49;5.20;1.00
21193;DHT22;10754;51.106;7.164;2022-12-10T21:23:28;5.10;1.00
21193;DHT22;10754;51.106;7.164;2022-12-10T21:29:02;5.00;1.00
21193;DHT22;10754;51.106;7.164;2022-12-10T21:31:33;5.10;1.00
21193;DHT22;10754;51.106;7.164;2022-12-10T21:33:59;5.00;1.00
21193;DHT22;10754;51.106;7.164;2022-12-10T21:36:30;5.00;1.00
21193;DHT22;10754;51.106;7.164;2022-12-10T21:39:05;5.20;1.00
21193;DHT22;10754;51.106;7.164;2022-12-10T21:41:37;5.10;1.00
21193;DHT22;10754;51.106;7.164;2022-12-10T21:47:05;5.00;1.00
21193;DHT22;10754;51.106;7.164;2022-12-10T21:49:39;5.00;1.00
21193;DHT22;10754;51.106;7.164;2022-12-10T21:52:20;5.00;1.00
21193;DHT22;10754;51.106;7.164;2022-12-10T21:55:04;4.90;1.00
21193;DHT22;10754;51.106;7.164;2022-12-10T21:57:56;4.90;1.00
21193;DHT22;10754;51.106;7.164;2022-12-10T22:00:30;4.90;1.00
21193;DHT22;10754;51.106;7.164;2022-12-10T22:06:30;4.90;1.00
21193;DHT22;10754;51.106;7.164;2022-12-10T22:09:13;4.90;1.00
21193;DHT22;10754;51.106;7.164;2022-12-10T22:14:40;5.00;1.00
21193;DHT22;10754;51.106;7.164;2022-12-10T22:17:24;4.90;1.00
21193;DHT22;10754;51.106;7.164;2022-12-10T22:20:23;4.90;1.00
21193;DHT22;10754;51.106;7.164;2022-12-10T22:23:12;4.90;1.00
21193;DHT22;10754;51.106;7.164;2022-12-10T22:25:44;5.00;1.00
21193;DHT22;10754;51.106;7.164;2022-12-10T22:28:13;5.10;1.00
21193;DHT22;10754;51.106;7.164;2022-12-10T22:30:59;5.10;1.00
21193;DHT22;10754;51.106;7.164;2022-12-10T22:33:45;5.10;1.00
21193;DHT22;10754;51.106;7.164;2022-12-10T22:36:49;5.10;1.00
21193;DHT22;10754;51.106;7.164;2022-12-10T22:39:23;5.20;1.00
21193;DHT22;10754;51.106;7.164;2022-12-10T22:42:05;5.10;1.00
21193;DHT22;10754;51.106;7.164;2022-12-10T22:44:52;5.20;1.00
21193;DHT22;10754;51.106;7.164;2022-12-10T22:47:58;5.10;1.00
21193;DHT22;10754;51.106;7.164;2022-12-10T22:50:24;5.20;1.00
21193;DHT22;10754;51.106;7.164;2022-12-10T22:52:58;5.00;1.00
21193;DHT22;10754;51.106;7.164;2022-12-10T22:55:40;5.10;1.00
21193;DHT22;10754;51.106;7.164;2022-12-10T22:58:42;4.90;1.00
21193;DHT22;10754;51.106;7.164;2022-12-10T23:01:47;4.80;1.00
21193;DHT22;10754;51.106;7.164;2022-12-10T23:04:23;4.90;1.00
21193;DHT22;10754;51.106;7.164;2022-12-10T23:06:53;4.90;1.00
21193;DHT22;10754;51.106;7.164;2022-12-10T23:09:19;5.00;1.00
21193;DHT22;10754;51.106;7.164;2022-12-10T23:11:50;5.10;1.00
21193;DHT22;10754;51.106;7.164;2022-12-10T23:14:48;5.10;1.00
21193;DHT22;10754;51.106;7.164;2022-12-10T23:17:23;5.20;1.00
21193;DHT22;10754;51.106;7.164;2022-12-10T23:19:57;5.20;1.00
21193;DHT22;10754;51.106;7.164;2022-12-10T23:22:33;5.10;1.00
21193;DHT22;10754;51.106;7.164;2022-12-10T23:25:05;5.10;1.00
21193;DHT22;10754;51.106;7.164;2022-12-10T23:27:39;5.10;1.00
21193;DHT22;10754;51.106;7.164;2022-12-10T23:30:11;5.00;1.00
21193;DHT22;10754;51.106;7.164;2022-12-10T23:32:56;5.00;1.00
21193;DHT22;10754;51.106;7.164;2022-12-10T23:35:24;5.10;1.00
21193;DHT22;10754;51.106;7.164;2022-12-10T23:37:55;5.10;1.00
21193;DHT22;10754;51.106;7.164;2022-12-10T23:40:32;5.20;1.00
21193;DHT22;10754;51.106;7.164;2022-12-10T23:42:58;5.20;1.00
21193;DHT22;10754;51.106;7.164;2022-12-10T23:52:10;5.20;1.00
21193;DHT22;10754;51.106;7.164;2022-12-10T23:54:38;5.20;1.00
21193;DHT22;10754;51.106;7.164;2022-12-10T23:57:24;5.20;1.00
